sensor_id;sensor_type;location;lat;lon;timestamp;pressure;altitude;pressure_sealevel;temperature;humidity
70254;BME280;57649;42.968;1.608;2023-11-19T00:00:00;97943.16;;;8.92;100.00
70254;BME280;57649;42.968;1.608;2023-11-19T00:02:39;97946.81;;;8.91;100.00
70254;BME280;57649;42.968;1.608;2023-11-19T00:05:05;97943.16;;;8.92;100.00
70254;BME280;57649;42.968;1.608;2023-11-19T00:07:38;97936.28;;;8.80;100.00
70254;BME280;57649;42.968;1.608;2023-11-19T00:10:15;97940.38;;;8.64;100.00
70254;BME280;57649;42.968;1.608;2023-11-19T00:12:59;97939.53;;;8.64;100.00
70254;BME280;57649;42.968;1.608;2023-11-19T00:15:28;97949.78;;;8.59;100.00
70254;BME280;57649;42.968;1.608;2023-11-19T00:17:56;97935.63;;;8.58;100.00
70254;BME280;57649;42.968;1.608;2023-11-19T00:20:28;97933.38;;;8.44;100.00
70254;BME280;57649;42.968;1.608;2023-11-19T00:23:05;97945.16;;;8.41;100.00
70254;BME280;57649;42.968;1.608;2023-11-19T00:25:31;97945.06;;;8.43;100.00
70254;BME280;57649;42.968;1.608;2023-11-19T00:28:05;97943.34;;;8.42;100.00
70254;BME280;57649;42.968;1.608;2023-11-19T00:30:31;97931.72;;;8.43;100.00
70254;BME280;57649;42.968;1.608;2023-11-19T00:33:02;97934.25;;;8.44;100.00
70254;BME280;57649;42.968;1.608;2023-11-19T00:35:36;97936.31;;;8.41;100.00
70254;BME280;57649;42.968;1.608;2023-11-19T00:38:02;97940.41;;;8.35;100.00
70254;BME280;57649;42.968;1.608;2023-11-19T00:40:31;97934.34;;;8.33;100.00
70254;BME280;57649;42.968;1.608;2023-11-19T00:42:57;97928.88;;;8.35;100.00
70254;BME280;57649;42.968;1.608;2023-11-19T00:45:28;97923.25;;;8.38;100.00
70254;BME280;57649;42.968;1.608;2023-11-19T00:50:54;97917.38;;;8.24;100.00
70254;BME280;57649;42.968;1.608;2023-11-19T00:53:22;97910.34;;;8.23;100.00
70254;BME280;57649;42.968;1.608;2023-11-19T00:55:48;97906.97;;;8.31;100.00
70254;BME280;57649;42.968;1.608;2023-11-19T00:58:14;97910.06;;;8.36;100.00
70254;BME280;57649;42.968;1.608;2023-11-19T01:00:49;97910.63;;;8.30;100.00
70254;BME280;57649;42.968;1.608;2023-11-19T01:03:20;97914.41;;;8.27;100.00
70254;BME280;57649;42.968;1.608;2023-11-19T01:05:46;97903.06;;;8.16;100.00
70254;BME280;57649;42.968;1.608;2023-11-19T01:08:15;97910.50;;;8.12;100.00
70254;BME280;57649;42.968;1.608;2023-11-19T01:10:43;97914.81;;;8.13;100.00
70254;BME280;57649;42.968;1.608;2023-11-19T01:13:09;97913.72;;;8.06;100.00
70254;BME280;57649;42.968;1.608;2023-11-19T01:15:35;97902.34;;;8.04;100.00
70254;BME280;57649;42.968;1.608;2023-11-19T01:18:01;97896.44;;;8.00;100.00
70254;BME280;57649;42.968;1.608;2023-11-19T01:20:30;97905.84;;;7.95;100.00
70254;BME280;57649;42.968;1.608;2023-11-19T01:22:55;97910.19;;;7.96;100.00
70254;BME280;57649;42.968;1.608;2023-11-19T01:25:27;97908.94;;;8.00;100.00
70254;BME280;57649;42.968;1.608;2023-11-19T01:27:52;97904.72;;;8.07;100.00
70254;BME280;57649;42.968;1.608;2023-11-19T01:30:18;97909.66;;;8.12;100.00
70254;BME280;57649;42.968;1.608;2023-11-19T01:32:46;97902.22;;;8.15;100.00
70254;BME280;57649;42.968;1.608;2023-11-19T01:35:12;97903.19;;;8.14;100.00
70254;BME280;57649;42.968;1.608;2023-11-19T01:37:40;97903.06;;;8.06;100.00
70254;BME280;57649;42.968;1.608;2023-11-19T01:40:06;97908.78;;;8.11;100.00
70254;BME280;57649;42.968;1.608;2023-11-19T01:42:40;97911.91;;;8.06;100.00
70254;BME280;57649;42.968;1.608;2023-11-19T01:45:08;97910.47;;;7.93;100.00
70254;BME280;57649;42.968;1.608;2023-11-19T01:47:35;97911.16;;;7.85;100.00
70254;BME280;57649;42.968;1.608;2023-11-19T01:50:01;97916.38;;;7.86;100.00
70254;BME280;57649;42.968;1.608;2023-11-19T01:52:32;97921.44;;;7.89;100.00
70254;BME280;57649;42.968;1.608;2023-11-19T01:55:00;97928.44;;;7.90;100.00
70254;BME280;57649;42.968;1.608;2023-11-19T01:57:25;97921.56;;;7.88;100.00
70254;BME280;57649;42.968;1.608;2023-11-19T01:59:55;97916.38;;;7.86;100.00
70254;BME280;57649;42.968;1.608;2023-11-19T02:02:20;97911.16;;;7.75;100.00
70254;BME280;57649;42.968;1.608;2023-11-19T02:04:49;97901.91;;;7.69;100.00
70254;BME280;57649;42.968;1.608;2023-11-19T02:07:19;97895.16;;;7.75;100.00
70254;BME280;57649;42.968;1.608;2023-11-19T02:09:44;97898.53;;;7.67;100.00
70254;BME280;57649;42.968;1.608;2023-11-19T02:12:10;97901.91;;;7.69;100.00
70254;BME280;57649;42.968;1.608;2023-11-19T02:14:38;97901.03;;;7.69;100.00
70254;BME280;57649;42.968;1.608;2023-11-19T02:17:04;97899.91;;;7.62;100.00
70254;BME280;57649;42.968;1.608;2023-11-19T02:19:35;97897.94;;;7.54;100.00
70254;BME280;57649;42.968;1.608;2023-11-19T02:22:07;97898.63;;;7.46;100.00
70254;BME280;57649;42.968;1.608;2023-11-19T02:24:32;97891.75;;;7.54;100.00
70254;BME280;57649;42.968;1.608;2023-11-19T02:27:10;97911.94;;;7.56;100.00
70254;BME280;57649;42.968;1.608;2023-11-19T02:29:44;97902.00;;;7.58;100.00
70254;BME280;57649;42.968;1.608;2023-11-19T02:32:20;97899.75;;;7.54;100.00
70254;BME280;57649;42.968;1.608;2023-11-19T02:34:48;97909.03;;;7.59;100.00
70254;BME280;57649;42.968;1.608;2023-11-19T02:37:14;97910.09;;;7.47;100.00
70254;BME280;57649;42.968;1.608;2023-11-19T02:39:40;97920.63;;;7.48;100.00
70254;BME280;57649;42.968;1.608;2023-11-19T02:42:07;97899.88;;;7.42;100.00
70254;BME280;57649;42.968;1.608;2023-11-19T02:44:33;97914.16;;;7.41;100.00
70254;BME280;57649;42.968;1.608;2023-11-19T02:46:59;97915.56;;;7.45;100.00
70254;BME280;57649;42.968;1.608;2023-11-19T02:49:24;97915.00;;;7.42;100.00
70254;BME280;57649;42.968;1.608;2023-11-19T02:51:50;97906.59;;;7.37;100.00
70254;BME280;57649;42.968;1.608;2023-11-19T02:54:15;97914.13;;;7.31;100.00
70254;BME280;57649;42.968;1.608;2023-11-19T02:56:44;97904.16;;;7.24;100.00
70254;BME280;57649;42.968;1.608;2023-11-19T02:59:13;97915.81;;;7.32;100.00
70254;BME280;57649;42.968;1.608;2023-11-19T03:01:52;97921.94;;;7.23;100.00
70254;BME280;57649;42.968;1.608;2023-11-19T03:04:17;97915.63;;;7.15;100.00
70254;BME280;57649;42.968;1.608;2023-11-19T03:06:45;97920.78;;;7.16;100.00
70254;BME280;57649;42.968;1.608;2023-11-19T03:09:10;97919.44;;;7.22;100.00
70254;BME280;57649;42.968;1.608;2023-11-19T03:11:36;97912.97;;;7.15;100.00
70254;BME280;57649;42.968;1.608;2023-11-19T03:14:01;97921.59;;;7.07;100.00
70254;BME280;57649;42.968;1.608;2023-11-19T03:16:28;97912.31;;;7.01;100.00
70254;BME280;57649;42.968;1.608;2023-11-19T03:18:54;97925.81;;;7.09;100.00
70254;BME280;57649;42.968;1.608;2023-11-19T03:21:29;97929.19;;;7.11;100.00
70254;BME280;57649;42.968;1.608;2023-11-19T03:23:56;97920.63;;;7.08;100.00
70254;BME280;57649;42.968;1.608;2023-11-19T03:26:40;97921.28;;;7.00;100.00
70254;BME280;57649;42.968;1.608;2023-11-19T03:29:09;97925.22;;;6.96;100.00
70254;BME280;57649;42.968;1.608;2023-11-19T03:31:34;97926.03;;;6.97;100.00
70254;BME280;57649;42.968;1.608;2023-11-19T03:34:00;97930.25;;;6.99;100.00
70254;BME280;57649;42.968;1.608;2023-11-19T03:36:25;97928.84;;;6.95;100.00
70254;BME280;57649;42.968;1.608;2023-11-19T03:39:00;97930.06;;;6.91;100.00
70254;BME280;57649;42.968;1.608;2023-11-19T03:41:25;97923.63;;;6.93;100.00
70254;BME280;57649;42.968;1.608;2023-11-19T03:43:51;97926.97;;;6.86;100.00
70254;BME280;57649;42.968;1.608;2023-11-19T03:46:20;97931.03;;;6.90;100.00
70254;BME280;57649;42.968;1.608;2023-11-19T03:48:49;97924.41;;;7.05;100.00
70254;BME280;57649;42.968;1.608;2023-11-19T03:51:14;97922.16;;;7.10;100.00
70254;BME280;57649;42.968;1.608;2023-11-19T03:53:44;97916.13;;;7.08;100.00
70254;BME280;57649;42.968;1.608;2023-11-19T03:56:10;97919.25;;;7.13;100.00
70254;BME280;57649;42.968;1.608;2023-11-19T03:58:36;97910.44;;;7.13;100.00
70254;BME280;57649;42.968;1.608;2023-11-19T04:01:01;97914.84;;;7.03;100.00
70254;BME280;57649;42.968;1.608;2023-11-19T04:03:27;97925.78;;;7.00;100.00
70254;BME280;57649;42.968;1.608;2023-11-19T04:05:53;97917.06;;;6.98;100.00
70254;BME280;57649;42.968;1.608;2023-11-19T04:08:18;97917.38;;;7.04;100.00
70254;BME280;57649;42.968;1.608;2023-11-19T04:10:44;97923.63;;;6.93;100.00
70254;BME280;57649;42.968;1.608;2023-11-19T04:13:10;97924.31;;;6.86;100.00
70254;BME280;57649;42.968;1.608;2023-11-19T04:15:35;97907.63;;;6.84;100.00
70254;BME280;57649;42.968;1.608;2023-11-19T04:18:01;97916.13;;;6.78;100.00
70254;BME280;57649;42.968;1.608;2023-11-19T04:20:26;97921.06;;;6.82;100.00
70254;BME280;57649;42.968;1.608;2023-11-19T04:22:52;97918.06;;;6.75;100.00
70254;BME280;57649;42.968;1.608;2023-11-19T04:25:19;97918.34;;;6.72;100.00
70254;BME280;57649;42.968;1.608;2023-11-19T04:27:44;97909.13;;;6.77;100.00
70254;BME280;57649;42.968;1.608;2023-11-19T04:30:10;97915.69;;;6.72;100.00
70254;BME280;57649;42.968;1.608;2023-11-19T04:32:36;97919.13;;;6.63;100.00
70254;BME280;57649;42.968;1.608;2023-11-19T04:35:02;97908.53;;;6.52;100.00
70254;BME280;57649;42.968;1.608;2023-11-19T04:37:27;97906.47;;;6.55;100.00
70254;BME280;57649;42.968;1.608;2023-11-19T04:39:52;97904.22;;;6.51;100.00
70254;BME280;57649;42.968;1.608;2023-11-19T04:42:18;97909.53;;;6.51;100.00
70254;BME280;57649;42.968;1.608;2023-11-19T04:44:43;97911.28;;;6.62;100.00
70254;BME280;57649;42.968;1.608;2023-11-19T04:47:09;97912.13;;;6.62;100.00
70254;BME280;57649;42.968;1.608;2023-11-19T04:49:42;97913.53;;;6.66;100.00
70254;BME280;57649;42.968;1.608;2023-11-19T04:52:10;97917.06;;;6.67;100.00
70254;BME280;57649;42.968;1.608;2023-11-19T04:54:43;97896.69;;;6.56;100.00
70254;BME280;57649;42.968;1.608;2023-11-19T04:57:09;97918.59;;;6.69;100.00
70254;BME280;57649;42.968;1.608;2023-11-19T04:59:38;97922.88;;;6.82;100.00
70254;BME280;57649;42.968;1.608;2023-11-19T05:02:04;97919.38;;;6.81;100.00
70254;BME280;57649;42.968;1.608;2023-11-19T05:04:30;97924.19;;;6.87;100.00
70254;BME280;57649;42.968;1.608;2023-11-19T05:06:55;97922.34;;;6.88;100.00
70254;BME280;57649;42.968;1.608;2023-11-19T05:09:21;97924.84;;;6.80;100.00
70254;BME280;57649;42.968;1.608;2023-11-19T05:11:46;97919.78;;;6.77;100.00
70254;BME280;57649;42.968;1.608;2023-11-19T05:14:12;97916.00;;;6.79;100.00
70254;BME280;57649;42.968;1.608;2023-11-19T05:16:39;97913.91;;;6.83;100.00
70254;BME280;57649;42.968;1.608;2023-11-19T05:19:05;97917.81;;;6.79;100.00
70254;BME280;57649;42.968;1.608;2023-11-19T05:21:30;97917.13;;;6.77;100.00
70254;BME280;57649;42.968;1.608;2023-11-19T05:23:56;97919.19;;;6.73;100.00
70254;BME280;57649;42.968;1.608;2023-11-19T05:26:23;97921.72;;;6.74;100.00
70254;BME280;57649;42.968;1.608;2023-11-19T05:28:49;97913.28;;;6.69;100.00
70254;BME280;57649;42.968;1.608;2023-11-19T05:31:16;97914.91;;;6.61;100.00
70254;BME280;57649;42.968;1.608;2023-11-19T05:33:42;97924.97;;;6.57;100.00
70254;BME280;57649;42.968;1.608;2023-11-19T05:36:07;97923.00;;;6.59;100.00
70254;BME280;57649;42.968;1.608;2023-11-19T05:38:36;97915.75;;;6.61;100.00
70254;BME280;57649;42.968;1.608;2023-11-19T05:41:02;97917.25;;;6.54;100.00
70254;BME280;57649;42.968;1.608;2023-11-19T05:43:30;97918.28;;;6.42;100.00
70254;BME280;57649;42.968;1.608;2023-11-19T05:45:56;97931.34;;;6.45;100.00
70254;BME280;57649;42.968;1.608;2023-11-19T05:48:21;97923.97;;;6.37;100.00
70254;BME280;57649;42.968;1.608;2023-11-19T05:50:47;97918.16;;;6.43;100.00
70254;BME280;57649;42.968;1.608;2023-11-19T05:53:15;97934.38;;;6.40;100.00
70254;BME280;57649;42.968;1.608;2023-11-19T05:55:40;97933.78;;;6.36;100.00
70254;BME280;57649;42.968;1.608;2023-11-19T05:58:16;97922.03;;;6.39;100.00
70254;BME280;57649;42.968;1.608;2023-11-19T06:00:42;97931.34;;;6.45;100.00
70254;BME280;57649;42.968;1.608;2023-11-19T06:03:08;97907.19;;;6.36;100.00
70254;BME280;57649;42.968;1.608;2023-11-19T06:05:34;97930.16;;;6.38;100.00
70254;BME280;57649;42.968;1.608;2023-11-19T06:07:59;97924.84;;;6.38;100.00
70254;BME280;57649;42.968;1.608;2023-11-19T06:10:25;97937.16;;;6.39;100.00
70254;BME280;57649;42.968;1.608;2023-11-19T06:12:59;97920.81;;;6.43;100.00
70254;BME280;57649;42.968;1.608;2023-11-19T06:15:25;97928.63;;;6.56;100.00
70254;BME280;57649;42.968;1.608;2023-11-19T06:17:52;97934.91;;;6.55;100.00
70254;BME280;57649;42.968;1.608;2023-11-19T06:20:17;97923.22;;;6.46;100.00
70254;BME280;57649;42.968;1.608;2023-11-19T06:22:45;97925.34;;;6.31;100.00
70254;BME280;57649;42.968;1.608;2023-11-19T06:25:11;97930.19;;;6.26;100.00
70254;BME280;57649;42.968;1.608;2023-11-19T06:27:36;97935.84;;;6.33;100.00
70254;BME280;57649;42.968;1.608;2023-11-19T06:30:02;97934.81;;;6.24;100.00
70254;BME280;57649;42.968;1.608;2023-11-19T06:32:27;97937.22;;;6.27;100.00
70254;BME280;57649;42.968;1.608;2023-11-19T06:34:53;97938.75;;;6.30;100.00
70254;BME280;57649;42.968;1.608;2023-11-19T06:37:19;97933.72;;;6.27;100.00
70254;BME280;57649;42.968;1.608;2023-11-19T06:39:44;97936.09;;;6.30;100.00
70254;BME280;57649;42.968;1.608;2023-11-19T06:42:10;97936.84;;;6.32;100.00
70254;BME280;57649;42.968;1.608;2023-11-19T06:44:35;97944.84;;;6.21;100.00
70254;BME280;57649;42.968;1.608;2023-11-19T06:47:01;97950.63;;;6.05;100.00
70254;BME280;57649;42.968;1.608;2023-11-19T06:49:26;97947.69;;;6.08;100.00
70254;BME280;57649;42.968;1.608;2023-11-19T06:51:51;97946.72;;;6.09;100.00
70254;BME280;57649;42.968;1.608;2023-11-19T06:54:17;97950.81;;;6.13;100.00
70254;BME280;57649;42.968;1.608;2023-11-19T06:56:42;97958.66;;;6.14;100.00
70254;BME280;57649;42.968;1.608;2023-11-19T06:59:08;97957.94;;;6.12;100.00
70254;BME280;57649;42.968;1.608;2023-11-19T07:01:37;97954.56;;;6.10;100.00
70254;BME280;57649;42.968;1.608;2023-11-19T07:04:03;97954.44;;;6.12;100.00
70254;BME280;57649;42.968;1.608;2023-11-19T07:06:35;97952.97;;;6.19;100.00
70254;BME280;57649;42.968;1.608;2023-11-19T07:09:02;97960.81;;;6.21;100.00
70254;BME280;57649;42.968;1.608;2023-11-19T07:11:38;97956.53;;;6.08;100.00
70254;BME280;57649;42.968;1.608;2023-11-19T07:14:04;97960.47;;;6.14;100.00
70254;BME280;57649;42.968;1.608;2023-11-19T07:16:31;97948.03;;;6.14;100.00
70254;BME280;57649;42.968;1.608;2023-11-19T07:18:57;97954.72;;;6.30;100.00
70254;BME280;57649;42.968;1.608;2023-11-19T07:21:24;97956.88;;;6.36;100.00
70254;BME280;57649;42.968;1.608;2023-11-19T07:23:49;97959.91;;;6.31;100.00
70254;BME280;57649;42.968;1.608;2023-11-19T07:26:47;97962.56;;;6.31;100.00
70254;BME280;57649;42.968;1.608;2023-11-19T07:29:14;97960.38;;;6.36;100.00
70254;BME280;57649;42.968;1.608;2023-11-19T07:31:42;97966.09;;;6.32;100.00
70254;BME280;57649;42.968;1.608;2023-11-19T07:34:09;97955.06;;;6.36;100.00
70254;BME280;57649;42.968;1.608;2023-11-19T07:36:35;97963.75;;;6.39;100.00
70254;BME280;57649;42.968;1.608;2023-11-19T07:39:01;97966.75;;;6.45;100.00
70254;BME280;57649;42.968;1.608;2023-11-19T07:41:26;97968.63;;;6.54;100.00
70254;BME280;57649;42.968;1.608;2023-11-19T07:43:52;97962.41;;;6.65;100.00
70254;BME280;57649;42.968;1.608;2023-11-19T07:46:17;97959.63;;;6.67;100.00
70254;BME280;57649;42.968;1.608;2023-11-19T07:48:46;97970.22;;;6.78;100.00
70254;BME280;57649;42.968;1.608;2023-11-19T07:51:14;97972.47;;;6.83;100.00
70254;BME280;57649;42.968;1.608;2023-11-19T07:53:42;97973.16;;;6.85;100.00
70254;BME280;57649;42.968;1.608;2023-11-19T07:56:08;97977.88;;;6.92;100.00
70254;BME280;57649;42.968;1.608;2023-11-19T07:58:34;97972.97;;;6.98;100.00
70254;BME280;57649;42.968;1.608;2023-11-19T08:01:00;97977.44;;;6.97;100.00
70254;BME280;57649;42.968;1.608;2023-11-19T08:03:27;97977.78;;;7.04;100.00
70254;BME280;57649;42.968;1.608;2023-11-19T08:05:55;97977.38;;;7.08;100.00
70254;BME280;57649;42.968;1.608;2023-11-19T08:08:22;97970.38;;;7.07;100.00
70254;BME280;57649;42.968;1.608;2023-11-19T08:10:47;97967.88;;;7.16;100.00
70254;BME280;57649;42.968;1.608;2023-11-19T08:13:13;97972.81;;;7.20;100.00
70254;BME280;57649;42.968;1.608;2023-11-19T08:15:38;97972.16;;;7.28;100.00
70254;BME280;57649;42.968;1.608;2023-11-19T08:18:04;97967.97;;;7.35;100.00
70254;BME280;57649;42.968;1.608;2023-11-19T08:20:30;97974.72;;;7.39;100.00
70254;BME280;57649;42.968;1.608;2023-11-19T08:22:55;97979.09;;;7.50;100.00
70254;BME280;57649;42.968;1.608;2023-11-19T08:25:20;97974.13;;;7.66;100.00
70254;BME280;57649;42.968;1.608;2023-11-19T08:27:46;97969.38;;;7.80;100.00
70254;BME280;57649;42.968;1.608;2023-11-19T08:30:12;97969.69;;;7.86;100.00
70254;BME280;57649;42.968;1.608;2023-11-19T08:32:37;97972.50;;;7.95;100.00
70254;BME280;57649;42.968;1.608;2023-11-19T08:35:03;97965.19;;;7.87;100.00
70254;BME280;57649;42.968;1.608;2023-11-19T08:37:31;97960.59;;;7.99;100.00
70254;BME280;57649;42.968;1.608;2023-11-19T08:39:56;97955.09;;;8.00;100.00
70254;BME280;57649;42.968;1.608;2023-11-19T08:42:22;97969.16;;;8.22;100.00
70254;BME280;57649;42.968;1.608;2023-11-19T08:44:50;97971.16;;;8.39;100.00
70254;BME280;57649;42.968;1.608;2023-11-19T08:47:16;97975.63;;;8.39;100.00
70254;BME280;57649;42.968;1.608;2023-11-19T08:49:43;97974.41;;;8.43;100.00
70254;BME280;57649;42.968;1.608;2023-11-19T08:52:09;97979.59;;;8.44;100.00
70254;BME280;57649;42.968;1.608;2023-11-19T08:54:37;97973.56;;;8.52;100.00
70254;BME280;57649;42.968;1.608;2023-11-19T08:57:03;97980.28;;;8.66;100.00
70254;BME280;57649;42.968;1.608;2023-11-19T08:59:29;97975.50;;;8.79;100.00
70254;BME280;57649;42.968;1.608;2023-11-19T09:01:58;97979.53;;;8.93;100.00
70254;BME280;57649;42.968;1.608;2023-11-19T09:04:23;97970.09;;;8.99;100.00
70254;BME280;57649;42.968;1.608;2023-11-19T09:06:49;97972.56;;;9.30;100.00
70254;BME280;57649;42.968;1.608;2023-11-19T09:09:14;97961.81;;;9.39;100.00
70254;BME280;57649;42.968;1.608;2023-11-19T09:11:40;97960.59;;;9.61;100.00
70254;BME280;57649;42.968;1.608;2023-11-19T09:14:05;97963.13;;;9.63;100.00
70254;BME280;57649;42.968;1.608;2023-11-19T09:16:31;97973.06;;;9.71;100.00
70254;BME280;57649;42.968;1.608;2023-11-19T09:18:56;97967.84;;;9.79;100.00
70254;BME280;57649;42.968;1.608;2023-11-19T09:21:23;97955.81;;;9.93;100.00
70254;BME280;57649;42.968;1.608;2023-11-19T09:23:48;97975.38;;;10.29;100.00
70254;BME280;57649;42.968;1.608;2023-11-19T09:26:14;97973.44;;;10.49;100.00
70254;BME280;57649;42.968;1.608;2023-11-19T09:28:39;97959.66;;;10.62;100.00
70254;BME280;57649;42.968;1.608;2023-11-19T09:31:15;97964.53;;;10.85;99.93
70254;BME280;57649;42.968;1.608;2023-11-19T09:33:40;97963.28;;;11.23;97.92
70254;BME280;57649;42.968;1.608;2023-11-19T09:36:06;97963.75;;;11.45;95.94
70254;BME280;57649;42.968;1.608;2023-11-19T09:38:31;97964.34;;;11.73;94.19
70254;BME280;57649;42.968;1.608;2023-11-19T09:40:58;97954.06;;;12.03;91.11
70254;BME280;57649;42.968;1.608;2023-11-19T09:43:25;97966.38;;;12.30;89.68
70254;BME280;57649;42.968;1.608;2023-11-19T09:45:54;97966.59;;;12.53;87.78
70254;BME280;57649;42.968;1.608;2023-11-19T09:48:21;97963.56;;;12.73;86.12
70254;BME280;57649;42.968;1.608;2023-11-19T09:50:50;97968.09;;;13.05;85.96
70254;BME280;57649;42.968;1.608;2023-11-19T09:53:17;97962.84;;;13.36;84.12
70254;BME280;57649;42.968;1.608;2023-11-19T09:55:43;97965.03;;;13.41;85.94
70254;BME280;57649;42.968;1.608;2023-11-19T09:58:09;97976.09;;;13.46;83.67
70254;BME280;57649;42.968;1.608;2023-11-19T10:00:37;97955.56;;;13.53;85.48
70254;BME280;57649;42.968;1.608;2023-11-19T10:03:02;97962.34;;;13.89;83.50
70254;BME280;57649;42.968;1.608;2023-11-19T10:05:30;97961.44;;;13.96;82.50
70254;BME280;57649;42.968;1.608;2023-11-19T10:07:55;97961.47;;;14.19;80.29
70254;BME280;57649;42.968;1.608;2023-11-19T10:10:21;97954.91;;;14.45;79.82
70254;BME280;57649;42.968;1.608;2023-11-19T10:12:47;97944.75;;;14.55;79.16
70254;BME280;57649;42.968;1.608;2023-11-19T10:15:19;97949.13;;;14.79;76.73
70254;BME280;57649;42.968;1.608;2023-11-19T10:17:46;97945.50;;;14.87;77.31
70254;BME280;57649;42.968;1.608;2023-11-19T10:20:11;97935.06;;;15.07;75.97
70254;BME280;57649;42.968;1.608;2023-11-19T10:22:37;97928.31;;;15.26;74.72
70254;BME280;57649;42.968;1.608;2023-11-19T10:25:03;97933.69;;;15.41;74.01
70254;BME280;57649;42.968;1.608;2023-11-19T10:27:29;97935.75;;;15.39;74.26
70254;BME280;57649;42.968;1.608;2023-11-19T10:29:59;97931.53;;;15.51;75.82
70254;BME280;57649;42.968;1.608;2023-11-19T10:32:25;97933.03;;;15.69;74.33
70254;BME280;57649;42.968;1.608;2023-11-19T10:34:50;97931.56;;;15.81;74.83
70254;BME280;57649;42.968;1.608;2023-11-19T10:37:28;97919.31;;;16.00;74.94
70254;BME280;57649;42.968;1.608;2023-11-19T10:39:55;97921.47;;;16.05;76.51
70254;BME280;57649;42.968;1.608;2023-11-19T10:42:20;97918.31;;;16.01;76.16
70254;BME280;57649;42.968;1.608;2023-11-19T10:44:46;97913.59;;;16.10;76.77
70254;BME280;57649;42.968;1.608;2023-11-19T10:47:13;97905.06;;;16.28;75.02
70254;BME280;57649;42.968;1.608;2023-11-19T10:49:39;97906.22;;;16.19;73.32
70254;BME280;57649;42.968;1.608;2023-11-19T10:52:08;97905.50;;;16.10;73.01
70254;BME280;57649;42.968;1.608;2023-11-19T10:54:34;97894.59;;;16.18;72.12
70254;BME280;57649;42.968;1.608;2023-11-19T10:57:01;97884.31;;;16.28;73.16
70254;BME280;57649;42.968;1.608;2023-11-19T10:59:31;97888.50;;;16.52;71.50
70254;BME280;57649;42.968;1.608;2023-11-19T11:02:03;97880.47;;;16.66;71.24
70254;BME280;57649;42.968;1.608;2023-11-19T11:04:33;97885.16;;;16.79;71.41
70254;BME280;57649;42.968;1.608;2023-11-19T11:07:04;97883.03;;;16.74;72.40
70254;BME280;57649;42.968;1.608;2023-11-19T11:09:31;97885.53;;;16.75;72.80
70254;BME280;57649;42.968;1.608;2023-11-19T11:11:58;97885.16;;;16.79;72.90
70254;BME280;57649;42.968;1.608;2023-11-19T11:14:25;97884.72;;;16.75;73.97
70254;BME280;57649;42.968;1.608;2023-11-19T11:16:51;97881.06;;;16.83;73.66
70254;BME280;57649;42.968;1.608;2023-11-19T11:19:18;97881.69;;;16.85;74.06
70254;BME280;57649;42.968;1.608;2023-11-19T11:21:47;97874.47;;;16.92;73.81
70254;BME280;57649;42.968;1.608;2023-11-19T11:24:24;97873.00;;;16.89;74.27
70254;BME280;57649;42.968;1.608;2023-11-19T11:27:28;97869.94;;;16.99;74.71
70254;BME280;57649;42.968;1.608;2023-11-19T11:36:19;97863.75;;;17.05;73.55
70254;BME280;57649;42.968;1.608;2023-11-19T11:38:47;97856.59;;;16.91;73.53
70254;BME280;57649;42.968;1.608;2023-11-19T11:41:24;97858.69;;;16.96;74.86
70254;BME280;57649;42.968;1.608;2023-11-19T11:43:54;97863.28;;;16.95;75.39
70254;BME280;57649;42.968;1.608;2023-11-19T11:49:04;97859.19;;;17.06;75.52
70254;BME280;57649;42.968;1.608;2023-11-19T11:57:07;97844.09;;;16.90;78.58
70254;BME280;57649;42.968;1.608;2023-11-19T12:02:12;97842.91;;;16.78;79.77
70254;BME280;57649;42.968;1.608;2023-11-19T12:04:39;97841.78;;;16.87;79.96
70254;BME280;57649;42.968;1.608;2023-11-19T12:07:05;97839.75;;;16.96;80.29
70254;BME280;57649;42.968;1.608;2023-11-19T12:09:32;97842.50;;;17.02;80.58
70254;BME280;57649;42.968;1.608;2023-11-19T12:12:20;97842.25;;;16.97;80.43
70254;BME280;57649;42.968;1.608;2023-11-19T12:20:01;97822.19;;;17.20;81.07
70254;BME280;57649;42.968;1.608;2023-11-19T12:22:27;97821.91;;;17.01;80.48
70254;BME280;57649;42.968;1.608;2023-11-19T12:24:55;97823.00;;;17.13;80.65
70254;BME280;57649;42.968;1.608;2023-11-19T12:27:21;97823.84;;;17.14;80.72
70254;BME280;57649;42.968;1.608;2023-11-19T12:29:51;97813.88;;;17.15;81.21
70254;BME280;57649;42.968;1.608;2023-11-19T12:32:17;97805.09;;;17.06;81.09
70254;BME280;57649;42.968;1.608;2023-11-19T12:34:44;97807.63;;;17.14;81.58
70254;BME280;57649;42.968;1.608;2023-11-19T12:37:10;97802.63;;;17.18;81.03
70254;BME280;57649;42.968;1.608;2023-11-19T12:39:36;97803.69;;;17.17;81.40
70254;BME280;57649;42.968;1.608;2023-11-19T12:42:01;97793.22;;;17.07;80.75
70254;BME280;57649;42.968;1.608;2023-11-19T12:44:27;97795.59;;;17.23;80.87
70254;BME280;57649;42.968;1.608;2023-11-19T12:46:59;97808.63;;;17.06;81.31
70254;BME280;57649;42.968;1.608;2023-11-19T12:49:26;97796.06;;;17.34;80.38
70254;BME280;57649;42.968;1.608;2023-11-19T12:51:51;97801.72;;;17.39;80.50
70254;BME280;57649;42.968;1.608;2023-11-19T12:54:17;97799.78;;;17.32;79.87
70254;BME280;57649;42.968;1.608;2023-11-19T12:56:53;97798.09;;;17.25;80.41
70254;BME280;57649;42.968;1.608;2023-11-19T12:59:18;97784.84;;;17.37;79.72
70254;BME280;57649;42.968;1.608;2023-11-19T13:01:57;97793.75;;;17.24;79.36
70254;BME280;57649;42.968;1.608;2023-11-19T13:04:23;97783.50;;;17.19;80.53
70254;BME280;57649;42.968;1.608;2023-11-19T13:06:52;97784.19;;;17.28;78.71
70254;BME280;57649;42.968;1.608;2023-11-19T13:09:22;97787.72;;;17.28;79.17
70254;BME280;57649;42.968;1.608;2023-11-19T13:11:49;97787.31;;;17.31;79.59
70254;BME280;57649;42.968;1.608;2023-11-19T13:14:14;97782.75;;;17.39;79.24
70254;BME280;57649;42.968;1.608;2023-11-19T13:16:40;97781.56;;;17.55;78.36
70254;BME280;57649;42.968;1.608;2023-11-19T13:19:05;97779.47;;;17.50;77.83
70254;BME280;57649;42.968;1.608;2023-11-19T13:21:31;97782.19;;;17.50;77.35
70254;BME280;57649;42.968;1.608;2023-11-19T13:23:57;97776.28;;;17.40;77.03
70254;BME280;57649;42.968;1.608;2023-11-19T13:26:22;97768.88;;;17.62;77.01